Time;durP1;ratioP1;P1;durP2;ratioP2;P2;SDS_P1;SDS_P2;PMS_P1;PMS_P2;Temp;Humidity;BMP_temperature;BMP_pressure;BME280_temperature;BME280_humidity;BME280_pressure;Samples;Min_cycle;Max_cycle;Signal;HPM_P1;HPM_P2
2022/06/02 00:01:43;;;;;;;1.73;1.63;;;10.80;99.90;;;;;;5024077;28;20260;-88
2022/06/02 00:04:18;;;;;;;2.43;1.50;;;10.80;99.90;;;;;;5024597;28;20503;-86
2022/06/02 00:07:03;;;;;;;2.73;2.20;;;10.80;99.90;;;;;;5023888;28;20518;-87
2022/06/02 00:09:52;;;;;;;2.50;1.70;;;10.80;99.90;;;;;;5025160;28;20456;-86
2022/06/02 00:12:51;;;;;;;2.07;1.93;;;10.70;99.90;;;;;;5023450;28;20306;-86
2022/06/02 00:15:23;;;;;;;1.17;1.07;;;10.70;99.90;;;;;;5023366;28;20253;-86
2022/06/02 00:18:09;;;;;;;1.70;1.60;;;10.70;99.90;;;;;;5024069;28;20648;-86
2022/06/02 00:20:54;;;;;;;1.83;1.50;;;10.70;99.90;;;;;;5024527;28;20253;-87
2022/06/02 00:23:43;;;;;;;2.23;1.83;;;10.70;99.90;;;;;;5023579;28;20228;-86
2022/06/02 00:26:28;;;;;;;2.07;1.87;;;10.70;99.90;;;;;;5022996;28;20223;-87
2022/06/02 00:29:35;;;;;;;1.87;1.70;;;10.60;99.90;;;;;;5023147;28;20221;-85
2022/06/02 00:32:07;;;;;;;2.30;2.10;;;10.60;99.90;;;;;;5022568;28;20232;-86
2022/06/02 00:34:42;;;;;;;2.77;1.80;;;10.60;99.90;;;;;;5039054;28;20317;-87
2022/06/02 00:37:20;;;;;;;2.70;1.90;;;10.50;99.90;;;;;;5024023;28;20605;-87
2022/06/02 00:39:48;;;;;;;2.23;1.53;;;10.50;99.90;;;;;;5024710;28;20205;-88
2022/06/02 00:42:26;;;;;;;5.13;1.97;;;10.50;99.90;;;;;;5022734;28;20214;-86
2022/06/02 00:44:58;;;;;;;1.47;1.37;;;10.50;99.90;;;;;;5022813;28;20247;-85
2022/06/02 00:47:39;;;;;;;2.40;2.20;;;10.50;99.90;;;;;;5023665;28;20311;-87
2022/06/02 00:50:34;;;;;;;1.70;1.60;;;10.50;99.90;;;;;;5022899;28;20287;-86
2022/06/02 00:53:13;;;;;;;2.47;1.80;;;10.40;99.90;;;;;;5021721;28;20321;-88
2022/06/02 00:59:39;;;;;;;2.13;1.73;;;10.40;99.90;;;;;;5008457;28;20302;-88
2022/06/02 01:02:05;;;;;;;2.00;1.50;;;10.40;99.90;;;;;;5038717;28;20225;-85
2022/06/02 01:04:35;;;;;;;2.07;1.97;;;10.40;99.90;;;;;;5014198;28;20245;-87
2022/06/02 01:07:24;;;;;;;2.47;1.87;;;10.40;99.90;;;;;;5023603;28;20208;-86
2022/06/02 01:10:13;;;;;;;2.03;1.77;;;10.40;99.90;;;;;;5039580;28;20182;-86
2022/06/02 01:13:15;;;;;;;1.80;1.70;;;10.50;99.90;;;;;;5025214;28;20665;-87
2022/06/02 01:15:52;;;;;;;1.50;1.40;;;10.60;99.90;;;;;;5028128;28;20232;-85
2022/06/02 01:18:27;;;;;;;1.63;1.40;;;10.60;99.90;;;;;;5026339;28;20220;-87
2022/06/02 01:21:19;;;;;;;1.80;1.70;;;10.70;99.90;;;;;;5027428;28;20810;-86
2022/06/02 01:24:13;;;;;;;1.70;1.60;;;10.80;99.90;;;;;;5027695;28;20617;-86
2022/06/02 01:27:08;;;;;;;2.83;1.90;;;10.90;99.90;;;;;;5027428;28;20214;-88
2022/06/02 01:29:59;;;;;;;2.00;1.67;;;10.90;99.90;;;;;;5026636;28;20602;-87
2022/06/02 01:32:36;;;;;;;1.77;1.67;;;11.00;99.90;;;;;;5026619;28;20261;-86
2022/06/02 01:35:14;;;;;;;3.23;1.83;;;11.10;99.90;;;;;;5026823;28;20300;-87
2022/06/02 01:38:14;;;;;;;1.97;1.77;;;11.10;99.90;;;;;;5027669;28;20226;-87
2022/06/02 01:40:43;;;;;;;2.30;1.83;;;11.20;99.90;;;;;;5026203;28;20674;-88
2022/06/02 01:43:50;;;;;;;2.30;1.90;;;11.20;99.90;;;;;;5027231;28;20191;-87
2022/06/02 01:46:24;;;;;;;3.47;2.23;;;11.20;99.90;;;;;;5026089;28;20290;-84
2022/06/02 01:49:09;;;;;;;1.80;1.37;;;11.20;99.90;;;;;;5027717;28;20614;-85
2022/06/02 01:51:53;;;;;;;2.30;2.13;;;11.10;99.90;;;;;;5027635;28;20215;-87
2022/06/02 01:55:03;;;;;;;2.63;2.43;;;11.10;99.90;;;;;;5026896;28;20229;-86
2022/06/02 01:57:42;;;;;;;1.40;1.30;;;11.00;99.90;;;;;;5010680;28;20237;-88
2022/06/02 02:00:16;;;;;;;1.40;1.20;;;11.00;99.90;;;;;;5027170;28;20218;-85
2022/06/02 02:02:50;;;;;;;1.60;1.40;;;10.90;99.90;;;;;;5025936;28;20224;-86
2022/06/02 02:05:27;;;;;;;1.30;1.17;;;10.90;99.90;;;;;;5026834;28;20313;-85
2022/06/02 02:08:04;;;;;;;1.23;1.20;;;10.90;99.90;;;;;;5026188;28;20297;-87
2022/06/02 02:10:49;;;;;;;4.03;1.30;;;10.80;99.90;;;;;;5024975;28;20222;-87
2022/06/02 02:13:34;;;;;;;1.30;1.20;;;10.80;99.90;;;;;;5041877;28;20213;-88
2022/06/02 02:16:27;;;;;;;1.40;1.03;;;10.80;99.90;;;;;;5025243;28;20249;-86
2022/06/02 02:19:11;;;;;;;0.60;0.60;;;10.80;99.90;;;;;;5026707;28;20647;-85
2022/06/02 02:22:11;;;;;;;1.00;1.00;;;10.70;99.90;;;;;;5025247;28;20670;-85
2022/06/02 02:25:17;;;;;;;1.00;0.97;;;10.80;99.90;;;;;;5040962;28;20264;-85
2022/06/02 02:28:03;;;;;;;1.57;1.30;;;10.80;99.90;;;;;;5022604;28;20214;-86
2022/06/02 02:31:11;;;;;;;0.90;0.90;;;10.80;99.90;;;;;;5005723;28;20227;-87
2022/06/02 02:34:03;;;;;;;1.60;1.50;;;10.80;99.90;;;;;;5006524;28;20361;-85
2022/06/02 02:37:02;;;;;;;1.50;1.10;;;10.70;99.90;;;;;;5025281;28;20230;-88
2022/06/02 02:39:38;;;;;;;0.90;0.73;;;10.70;99.90;;;;;;5026128;28;20308;-85
2022/06/02 02:42:22;;;;;;;1.00;1.00;;;10.70;99.90;;;;;;5026173;28;20214;-87
2022/06/02 02:45:27;;;;;;;1.03;0.93;;;10.60;99.90;;;;;;5024815;28;20274;-86
2022/06/02 02:47:57;;;;;;;1.07;1.07;;;10.60;99.90;;;;;;5006714;28;20218;-87
2022/06/02 02:50:37;;;;;;;8.23;0.90;;;10.60;99.90;;;;;;5024561;28;20228;-87
2022/06/02 02:53:12;;;;;;;1.90;1.17;;;10.60;99.90;;;;;;5024295;28;20218;-86
2022/06/02 02:55:55;;;;;;;1.50;1.30;;;10.60;99.90;;;;;;5026146;28;20226;-85
2022/06/02 02:58:47;;;;;;;1.80;1.07;;;10.50;99.90;;;;;;5024570;28;20298;-85
2022/06/02 03:01:42;;;;;;;1.30;1.20;;;10.50;99.90;;;;;;5025905;28;20182;-85
2022/06/02 03:04:34;;;;;;;2.17;1.40;;;10.50;99.90;;;;;;5023964;28;20191;-86
2022/06/02 03:06:59;;;;;;;1.33;1.23;;;10.50;99.90;;;;;;5024951;28;20175;-86
2022/06/02 03:09:42;;;;;;;1.77;1.13;;;10.50;99.90;;;;;;5024866;28;20187;-87
2022/06/02 03:12:25;;;;;;;1.23;1.03;;;10.50;99.90;;;;;;5024613;28;20304;-88
2022/06/02 03:15:12;;;;;;;2.20;1.00;;;10.50;99.90;;;;;;5025447;28;20305;-87
2022/06/02 03:17:43;;;;;;;0.80;0.80;;;10.60;99.90;;;;;;5024294;28;20582;-89
2022/06/02 03:20:37;;;;;;;1.30;1.00;;;10.60;99.90;;;;;;5024154;28;21027;-86
2022/06/02 03:23:08;;;;;;;1.17;1.07;;;10.60;99.90;;;;;;5024106;28;20231;-87
2022/06/02 03:26:04;;;;;;;2.70;1.30;;;10.60;99.90;;;;;;5024533;28;20226;-88
2022/06/02 03:28:50;;;;;;;0.77;0.77;;;10.60;99.90;;;;;;4997465;28;20218;-86
2022/06/02 03:31:34;;;;;;;1.20;1.13;;;10.60;99.90;;;;;;5022836;28;20183;-87
2022/06/02 03:34:06;;;;;;;1.97;1.73;;;10.60;99.90;;;;;;5025065;28;20246;-85
2022/06/02 03:36:41;;;;;;;0.73;0.70;;;10.70;99.90;;;;;;5024849;28;20230;-88
2022/06/02 03:39:09;;;;;;;1.10;1.00;;;10.70;99.90;;;;;;5024911;28;20693;-86
2022/06/02 03:42:09;;;;;;;1.23;1.13;;;10.70;99.90;;;;;;5040281;28;20210;-86
2022/06/02 03:44:49;;;;;;;2.03;1.20;;;10.70;99.90;;;;;;5004108;28;20272;-86
2022/06/02 03:47:31;;;;;;;1.20;1.10;;;10.80;99.90;;;;;;5024698;28;20251;-87
2022/06/02 03:50:01;;;;;;;0.87;0.87;;;10.80;99.90;;;;;;5022962;28;20206;-86
2022/06/02 03:52:49;;;;;;;0.97;0.97;;;10.80;99.90;;;;;;5025065;28;20218;-85
2022/06/02 03:55:40;;;;;;;1.10;1.00;;;10.80;99.90;;;;;;5024147;28;20716;-86
2022/06/02 03:58:09;;;;;;;1.77;1.20;;;10.80;99.90;;;;;;5023236;28;20230;-86
2022/06/02 04:00:43;;;;;;;1.60;1.50;;;10.80;99.90;;;;;;5024345;28;20191;-84
2022/06/02 04:03:14;;;;;;;1.03;1.00;;;10.90;99.90;;;;;;5023176;28;20984;-87
2022/06/02 04:06:02;;;;;;;1.10;0.93;;;10.90;99.90;;;;;;5023155;28;20690;-85
2022/06/02 04:08:45;;;;;;;1.23;1.00;;;10.90;99.90;;;;;;5023697;28;20509;-85
2022/06/02 04:11:25;;;;;;;1.10;1.00;;;10.90;99.90;;;;;;5023526;28;20218;-85
2022/06/02 04:14:28;;;;;;;1.13;1.03;;;11.00;99.90;;;;;;5023626;28;20702;-86
2022/06/02 04:17:04;;;;;;;1.50;1.00;;;11.00;99.90;;;;;;4957921;28;20217;-86
2022/06/02 04:22:56;;;;;;;2.13;1.30;;;11.10;99.90;;;;;;5025015;28;20683;-86
2022/06/02 04:25:42;;;;;;;2.13;1.00;;;11.20;99.90;;;;;;5024017;28;20268;-86
2022/06/02 04:28:47;;;;;;;2.00;1.47;;;11.40;99.90;;;;;;5039665;28;20275;-88
2022/06/02 04:31:31;;;;;;;1.63;1.37;;;11.50;99.90;;;;;;5016562;28;20193;-87
2022/06/02 04:34:10;;;;;;;2.70;1.10;;;11.70;99.90;;;;;;5023114;28;20252;-87
2022/06/02 04:36:47;;;;;;;1.70;1.27;;;11.80;99.90;;;;;;5023611;28;20305;-86
2022/06/02 04:39:30;;;;;;;1.10;1.10;;;11.80;99.90;;;;;;5022449;28;20237;-85
2022/06/02 04:42:11;;;;;;;1.53;1.20;;;11.80;99.90;;;;;;5023942;28;20309;-86
2022/06/02 04:44:45;;;;;;;0.70;0.70;;;11.80;99.90;;;;;;5023098;28;20632;-86
2022/06/02 04:47:29;;;;;;;0.70;0.70;;;11.80;99.90;;;;;;5021616;28;20303;-85
2022/06/02 04:50:22;;;;;;;3.47;0.93;;;11.90;99.90;;;;;;5039068;28;20214;-85
2022/06/02 04:53:18;;;;;;;2.77;1.03;;;11.90;99.90;;;;;;5024338;28;20717;-88
2022/06/02 04:56:21;;;;;;;1.63;1.53;;;12.00;99.90;;;;;;5024310;28;20349;-88
2022/06/02 04:58:51;;;;;;;0.80;0.80;;;12.10;99.90;;;;;;5022721;28;20529;-88
2022/06/02 05:01:30;;;;;;;1.60;0.97;;;12.20;99.90;;;;;;5023570;28;20237;-87
2022/06/02 05:04:20;;;;;;;3.40;1.00;;;12.30;99.90;;;;;;5025271;28;20454;-89
2022/06/02 05:07:00;;;;;;;2.20;0.83;;;12.40;99.90;;;;;;5023122;28;20287;-90
2022/06/02 05:09:44;;;;;;;1.03;0.93;;;12.40;99.90;;;;;;5024467;28;20198;-87
2022/06/02 05:12:23;;;;;;;3.67;1.13;;;12.60;99.90;;;;;;5022776;28;20683;-90
2022/06/02 05:15:12;;;;;;;0.70;0.60;;;12.60;99.90;;;;;;5023677;28;20214;-87
2022/06/02 05:17:48;;;;;;;0.90;0.87;;;13.10;99.90;;;;;;5023272;28;20227;-88
2022/06/02 05:20:48;;;;;;;1.33;1.23;;;13.50;99.90;;;;;;5024164;28;20225;-87
2022/06/02 05:23:43;;;;;;;0.67;0.60;;;14.60;99.90;;;;;;5027375;28;20226;-88
2022/06/02 05:26:39;;;;;;;1.43;1.00;;;17.50;99.90;;;;;;4994826;28;20298;-88
2022/06/02 05:29:24;;;;;;;1.03;0.90;;;19.40;99.90;;;;;;5022281;28;20253;-88
2022/06/02 05:32:12;;;;;;;1.63;0.60;;;19.80;99.90;;;;;;5022570;28;20253;-88
2022/06/02 05:34:41;;;;;;;2.10;1.00;;;20.50;99.90;;;;;;5022612;28;20242;-89
2022/06/02 05:37:20;;;;;;;0.77;0.77;;;19.90;99.90;;;;;;5023418;28;20202;-86
2022/06/02 05:39:58;;;;;;;1.17;1.00;;;20.10;99.90;;;;;;5022639;28;20179;-86
2022/06/02 05:42:43;;;;;;;1.13;1.00;;;21.20;99.90;;;;;;5021873;28;20645;-87
2022/06/02 05:45:34;;;;;;;4.40;1.43;;;19.40;99.90;;;;;;5021659;28;20219;-87
2022/06/02 05:48:05;;;;;;;1.30;0.93;;;16.90;99.90;;;;;;5022850;28;20227;-88
2022/06/02 05:50:53;;;;;;;1.73;0.90;;;15.60;99.90;;;;;;5022119;28;20231;-88
2022/06/02 05:53:44;;;;;;;1.10;1.03;;;14.90;99.90;;;;;;5021522;28;20226;-86
2022/06/02 05:56:20;;;;;;;1.83;0.77;;;14.60;99.90;;;;;;5023395;28;20257;-89
2022/06/02 05:58:54;;;;;;;3.50;1.73;;;14.80;99.90;;;;;;5023060;28;20218;-89
2022/06/02 06:01:29;;;;;;;0.80;0.80;;;16.40;99.90;;;;;;5026638;28;20221;-88
2022/06/02 06:04:17;;;;;;;1.13;1.00;;;15.70;99.90;;;;;;5026853;28;20197;-89
2022/06/02 06:06:54;;;;;;;2.73;1.00;;;17.00;99.90;;;;;;5026350;28;20241;-89
2022/06/02 06:09:24;;;;;;;1.63;1.10;;;18.90;99.90;;;;;;5026673;28;20305;-89
2022/06/02 06:12:02;;;;;;;1.30;0.77;;;20.50;99.90;;;;;;5026479;28;20306;-88
2022/06/02 06:14:30;;;;;;;1.27;1.17;;;21.30;99.90;;;;;;5013626;28;20270;-89
2022/06/02 06:17:18;;;;;;;1.93;1.20;;;21.80;99.90;;;;;;5005633;28;20270;-89
2022/06/02 06:20:04;;;;;;;1.40;1.30;;;22.00;99.90;;;;;;5006066;28;20591;-88
2022/06/02 06:22:36;;;;;;;1.00;0.90;;;20.90;99.90;;;;;;5006093;28;20225;-89
2022/06/02 06:25:41;;;;;;;1.80;1.03;;;20.60;99.90;;;;;;5006188;28;20538;-86
2022/06/02 06:28:12;;;;;;;1.67;0.90;;;21.30;99.90;;;;;;5007280;28;20233;-88
2022/06/02 06:30:59;;;;;;;0.80;0.80;;;21.50;99.90;;;;;;5005731;28;20221;-89
2022/06/02 06:33:40;;;;;;;1.30;1.20;;;20.70;99.90;;;;;;5007233;28;20239;-90
2022/06/02 06:36:38;;;;;;;1.20;1.10;;;21.30;99.90;;;;;;5006900;28;20274;-91
2022/06/02 06:39:10;;;;;;;1.13;1.13;;;21.60;99.90;;;;;;5006487;28;20219;-89
2022/06/02 06:41:53;;;;;;;1.67;1.00;;;20.60;99.90;;;;;;5005539;28;20227;-89
2022/06/02 06:44:41;;;;;;;2.97;1.20;;;20.30;99.90;;;;;;5006941;28;20398;-88
2022/06/02 06:47:20;;;;;;;1.07;0.93;;;21.00;99.90;;;;;;5005756;28;20298;-89
2022/06/02 06:49:50;;;;;;;1.73;1.53;;;19.50;99.90;;;;;;5006077;28;20272;-86
2022/06/02 06:52:19;;;;;;;1.13;1.03;;;18.30;99.90;;;;;;5004531;28;20210;-88
2022/06/02 06:55:15;;;;;;;1.00;0.97;;;17.40;99.90;;;;;;5006204;28;20218;-90
2022/06/02 06:58:01;;;;;;;1.10;1.00;;;17.90;99.90;;;;;;5004842;28;20234;-89
2022/06/02 07:00:41;;;;;;;1.50;0.83;;;17.40;99.90;;;;;;5006562;28;20269;-90
2022/06/02 07:03:19;;;;;;;2.13;0.97;;;17.50;99.90;;;;;;5005664;28;20249;-89
2022/06/02 07:05:49;;;;;;;1.63;1.30;;;18.50;99.90;;;;;;5005692;28;20273;-89
2022/06/02 07:08:22;;;;;;;2.50;1.00;;;17.90;99.90;;;;;;5005934;28;20246;-88
2022/06/02 07:11:03;;;;;;;1.50;1.40;;;19.30;99.90;;;;;;5004245;28;20230;-89
2022/06/02 07:13:53;;;;;;;1.13;1.13;;;20.20;99.90;;;;;;5006541;28;20215;-87
2022/06/02 07:16:33;;;;;;;1.10;1.00;;;18.60;99.90;;;;;;5006588;28;20227;-88
2022/06/02 07:19:21;;;;;;;1.03;1.03;;;17.90;99.90;;;;;;5004291;28;20184;-88
2022/06/02 07:22:00;;;;;;;1.43;1.23;;;17.20;99.90;;;;;;5004122;28;20179;-89
2022/06/02 07:24:48;;;;;;;1.40;1.27;;;16.60;99.90;;;;;;5004199;28;20665;-87
2022/06/02 07:27:41;;;;;;;2.57;0.97;;;16.40;99.90;;;;;;5004365;28;20241;-89
2022/06/02 07:30:30;;;;;;;1.50;1.00;;;16.50;99.90;;;;;;5004736;28;20226;-89
2022/06/02 07:33:04;;;;;;;2.30;1.07;;;16.90;99.90;;;;;;5004246;28;20514;-86
2022/06/02 07:35:46;;;;;;;3.27;1.20;;;17.00;99.90;;;;;;5004494;28;20230;-88
2022/06/02 07:38:21;;;;;;;2.03;1.37;;;17.10;99.90;;;;;;5004241;28;20226;-89
2022/06/02 07:41:20;;;;;;;6.60;1.40;;;16.50;99.90;;;;;;5004314;28;20222;-88
2022/06/02 07:44:03;;;;;;;1.63;1.30;;;16.60;99.90;;;;;;5004734;28;20223;-91
2022/06/02 07:46:41;;;;;;;1.63;1.00;;;16.80;99.90;;;;;;5003513;28;20274;-87
2022/06/02 07:49:23;;;;;;;2.40;1.70;;;16.70;99.90;;;;;;5002938;28;20189;-86
2022/06/02 07:51:55;;;;;;;1.00;1.00;;;16.20;99.90;;;;;;5005086;28;20202;-85
2022/06/02 07:54:38;;;;;;;0.60;0.60;;;16.30;99.90;;;;;;5005283;28;20266;-86
2022/06/02 07:57:32;;;;;;;0.80;0.80;;;15.90;99.90;;;;;;5011243;28;20306;-87
2022/06/02 08:00:04;;;;;;;0.80;0.80;;;15.30;99.90;;;;;;5003864;28;20416;-87
2022/06/02 08:02:46;;;;;;;1.43;0.93;;;15.10;99.90;;;;;;5003069;28;20219;-83
2022/06/02 08:05:22;;;;;;;1.60;1.30;;;15.20;99.90;;;;;;5002843;28;20227;-87
2022/06/02 08:08:01;;;;;;;2.43;0.80;;;15.70;99.90;;;;;;5004397;28;20675;-87
2022/06/02 08:10:33;;;;;;;3.50;1.00;;;16.20;99.90;;;;;;5002488;28;20226;-86
2022/06/02 08:13:33;;;;;;;0.70;0.70;;;15.60;99.90;;;;;;5004397;28;20199;-89
2022/06/02 08:16:24;;;;;;;1.57;1.10;;;15.40;99.90;;;;;;5004391;28;20191;-86
2022/06/02 08:19:11;;;;;;;0.50;0.50;;;16.50;99.90;;;;;;5002684;28;20183;-85
2022/06/02 08:21:48;;;;;;;1.63;1.53;;;15.80;99.90;;;;;;5001836;28;20265;-87
2022/06/02 08:24:55;;;;;;;0.90;0.90;;;16.10;99.90;;;;;;5002853;28;20211;-89
2022/06/02 08:27:59;;;;;;;0.93;0.80;;;16.00;99.90;;;;;;5003457;28;20227;-91
2022/06/02 08:30:44;;;;;;;1.57;0.83;;;16.80;99.90;;;;;;5002856;28;20277;-88
2022/06/02 08:33:28;;;;;;;1.20;0.97;;;17.40;99.90;;;;;;5003705;28;20219;-89
2022/06/02 08:35:56;;;;;;;1.27;0.80;;;17.60;99.90;;;;;;5019153;28;20258;-87
2022/06/02 08:38:41;;;;;;;1.37;0.97;;;17.80;99.90;;;;;;5004052;28;20327;-88
2022/06/02 08:41:33;;;;;;;0.90;0.90;;;17.50;99.90;;;;;;5004199;28;20310;-87
2022/06/02 08:44:25;;;;;;;1.80;1.00;;;16.40;99.90;;;;;;5004028;28;20215;-89
2022/06/02 08:47:41;;;;;;;1.20;1.10;;;16.60;99.90;;;;;;5003108;28;20215;-88
2022/06/02 08:50:16;;;;;;;3.17;1.20;;;16.80;99.90;;;;;;4960003;28;20322;-87
2022/06/02 08:53:29;;;;;;;1.67;1.47;;;17.30;99.90;;;;;;5004161;28;20317;-87
2022/06/02 08:56:18;;;;;;;1.33;1.23;;;18.40;99.90;;;;;;5003835;28;20226;-87
2022/06/02 08:59:21;;;;;;;1.70;0.70;;;18.50;99.90;;;;;;5002597;28;20682;-88
2022/06/02 09:02:05;;;;;;;1.30;1.20;;;17.50;99.90;;;;;;5002494;28;20780;-87
2022/06/02 09:04:46;;;;;;;2.80;1.13;;;17.80;99.90;;;;;;5002524;28;20242;-88
2022/06/02 09:07:49;;;;;;;1.23;0.83;;;18.80;99.90;;;;;;5002694;28;20176;-87
2022/06/02 09:10:51;;;;;;;0.87;0.87;;;18.70;99.90;;;;;;5003166;28;20198;-88
2022/06/02 09:13:47;;;;;;;1.10;0.93;;;16.80;99.90;;;;;;5003581;28;20265;-88
2022/06/02 09:16:41;;;;;;;2.77;1.40;;;15.90;99.90;;;;;;5003792;28;20230;-88
2022/06/02 09:19:28;;;;;;;1.63;1.20;;;16.30;99.90;;;;;;5003824;28;20337;-89
2022/06/02 09:22:17;;;;;;;1.67;1.20;;;16.60;99.90;;;;;;5003458;28;20194;-87
2022/06/02 09:24:58;;;;;;;1.83;1.63;;;16.80;99.90;;;;;;5001814;28;20204;-88
2022/06/02 09:27:32;;;;;;;0.60;0.60;;;17.60;99.90;;;;;;5003816;28;20207;-87
2022/06/02 09:30:22;;;;;;;4.07;1.73;;;18.80;99.90;;;;;;5002706;28;20223;-87
2022/06/02 09:33:33;;;;;;;0.80;0.80;;;17.80;99.90;;;;;;5003021;28;20250;-87
2022/06/02 09:36:13;;;;;;;1.23;1.10;;;18.20;99.90;;;;;;4999972;28;20719;-86
2022/06/02 09:38:58;;;;;;;4.30;1.07;;;19.80;99.90;;;;;;4987677;28;20223;-86
2022/06/02 09:41:58;;;;;;;2.40;0.93;;;18.50;99.90;;;;;;4987624;28;20216;-88
2022/06/02 09:44:46;;;;;;;1.03;0.97;;;17.80;99.90;;;;;;4979081;28;20224;-87
2022/06/02 09:47:31;;;;;;;2.57;1.20;;;19.40;99.90;;;;;;4987664;28;20317;-88
2022/06/02 09:50:10;;;;;;;0.90;0.90;;;19.60;99.90;;;;;;4987047;28;20215;-88
2022/06/02 09:52:54;;;;;;;1.50;1.33;;;19.20;99.90;;;;;;4987496;28;20219;-89
2022/06/02 09:55:35;;;;;;;1.47;1.20;;;17.80;99.90;;;;;;4985962;28;20335;-87
2022/06/02 09:58:11;;;;;;;1.03;1.03;;;17.30;99.90;;;;;;4987006;28;20211;-88
2022/06/02 10:00:39;;;;;;;0.80;0.77;;;17.50;99.90;;;;;;4986521;28;20599;-88
2022/06/02 10:03:24;;;;;;;1.00;0.80;;;17.50;99.90;;;;;;4987097;28;20235;-88
2022/06/02 10:05:53;;;;;;;1.30;1.20;;;17.00;99.90;;;;;;4986221;28;20223;-87
2022/06/02 10:08:58;;;;;;;1.17;0.90;;;16.90;99.90;;;;;;4986025;28;20250;-87
2022/06/02 10:11:38;;;;;;;1.27;0.83;;;17.50;99.90;;;;;;4987045;28;20269;-89
2022/06/02 10:14:26;;;;;;;1.87;0.90;;;18.80;99.90;;;;;;4987076;28;20250;-88
2022/06/02 10:16:55;;;;;;;1.20;1.10;;;18.30;99.90;;;;;;4985610;28;20235;-88
2022/06/02 10:19:54;;;;;;;2.73;1.67;;;17.10;99.90;;;;;;4985522;28;20234;-88
2022/06/02 10:22:53;;;;;;;3.83;1.33;;;16.70;99.90;;;;;;4986054;28;20307;-88
2022/06/02 10:25:41;;;;;;;3.43;1.70;;;18.40;99.90;;;;;;4986361;28;20227;-88
2022/06/02 10:28:16;;;;;;;1.93;1.20;;;20.60;99.90;;;;;;4985361;28;20184;-86
2022/06/02 10:30:48;;;;;;;1.43;1.00;;;19.30;99.90;;;;;;4985898;28;20179;-86
2022/06/02 10:33:40;;;;;;;1.60;1.00;;;19.40;99.90;;;;;;4981968;28;20224;-87
2022/06/02 10:36:27;;;;;;;0.87;0.83;;;18.30;99.90;;;;;;5023980;28;20334;-87
2022/06/02 10:39:11;;;;;;;1.33;1.20;;;18.00;99.90;;;;;;5029001;28;20709;-88
2022/06/02 10:42:18;;;;;;;1.07;0.97;;;18.00;99.90;;;;;;5028588;28;20215;-87
2022/06/02 10:45:05;;;;;;;1.20;1.10;;;17.00;99.90;;;;;;5024121;28;20290;-86
2022/06/02 10:47:55;;;;;;;1.83;0.90;;;16.90;99.90;;;;;;5024446;28;20210;-87
2022/06/02 10:50:43;;;;;;;1.77;1.00;;;16.90;99.90;;;;;;5024550;28;20233;-86
2022/06/02 10:53:50;;;;;;;1.27;1.20;;;16.90;99.90;;;;;;5025343;28;20214;-87
2022/06/02 10:56:36;;;;;;;1.20;1.10;;;17.50;99.90;;;;;;5041109;28;20372;-89
2022/06/02 10:59:29;;;;;;;1.17;1.07;;;17.60;99.90;;;;;;5024220;28;20229;-88
2022/06/02 11:02:01;;;;;;;1.30;1.20;;;18.10;99.90;;;;;;5025910;28;20338;-88
2022/06/02 11:04:46;;;;;;;0.77;0.77;;;18.50;99.90;;;;;;5025275;28;20272;-87
2022/06/02 11:07:43;;;;;;;1.23;1.10;;;19.40;99.90;;;;;;5025164;28;20198;-88
2022/06/02 11:10:22;;;;;;;1.27;1.20;;;18.30;99.90;;;;;;5024200;28;20186;-87
2022/06/02 11:13:07;;;;;;;0.83;0.70;;;18.20;99.90;;;;;;5026391;28;20186;-88
2022/06/02 11:16:03;;;;;;;4.47;1.10;;;17.90;99.90;;;;;;5025779;28;20265;-90
2022/06/02 11:19:00;;;;;;;1.83;1.20;;;18.50;99.90;;;;;;5025193;28;20299;-87
2022/06/02 11:21:59;;;;;;;2.50;1.30;;;18.70;99.90;;;;;;5024248;28;20241;-87
2022/06/02 11:24:40;;;;;;;2.47;1.30;;;19.40;99.90;;;;;;5023978;28;20256;-88
2022/06/02 11:27:15;;;;;;;1.07;0.90;;;20.20;99.90;;;;;;5024143;28;20582;-90
2022/06/02 11:29:53;;;;;;;1.37;1.27;;;19.50;99.90;;;;;;5023825;28;20225;-89
2022/06/02 11:32:36;;;;;;;1.37;1.27;;;18.50;99.90;;;;;;5024246;28;21041;-88
2022/06/02 11:35:17;;;;;;;1.57;1.20;;;17.70;99.90;;;;;;5023689;28;20230;-88
2022/06/02 11:38:01;;;;;;;1.37;1.27;;;18.90;99.90;;;;;;5024049;28;20230;-87
2022/06/02 11:40:48;;;;;;;1.20;1.10;;;19.50;99.90;;;;;;5025069;28;20256;-87
2022/06/02 11:43:26;;;;;;;1.50;1.40;;;18.90;99.90;;;;;;5023614;28;20678;-87
2022/06/02 11:46:32;;;;;;;1.40;1.07;;;19.00;99.90;;;;;;5025156;28;20183;-87
2022/06/02 11:49:36;;;;;;;1.20;1.00;;;19.40;99.90;;;;;;5038928;28;20793;-87
2022/06/02 11:52:07;;;;;;;1.50;1.17;;;19.80;99.90;;;;;;5024763;28;20186;-87
2022/06/02 11:54:54;;;;;;;1.50;1.40;;;19.40;99.90;;;;;;5039238;28;20243;-88
2022/06/02 11:57:54;;;;;;;1.53;1.30;;;18.70;99.90;;;;;;5022964;28;20683;-87
2022/06/02 12:00:46;;;;;;;5.07;1.10;;;18.90;99.90;;;;;;5039809;28;20218;-87
2022/06/02 12:03:27;;;;;;;1.33;1.20;;;18.50;99.90;;;;;;5005976;28;20310;-88
2022/06/02 12:06:18;;;;;;;0.93;0.90;;;19.10;99.90;;;;;;5003751;28;20316;-88
2022/06/02 12:09:20;;;;;;;1.57;1.47;;;18.80;99.90;;;;;;5003709;28;20231;-87
2022/06/02 12:12:11;;;;;;;1.77;1.30;;;18.00;99.90;;;;;;5004648;28;20781;-88
2022/06/02 12:14:45;;;;;;;1.70;1.00;;;18.20;99.90;;;;;;5004604;28;20223;-90
2022/06/02 12:17:52;;;;;;;2.60;1.43;;;18.10;99.90;;;;;;5004568;28;20222;-88
2022/06/02 12:20:24;;;;;;;4.37;1.20;;;18.30;99.90;;;;;;5003633;28;20742;-88
2022/06/02 12:22:58;;;;;;;4.20;1.33;;;18.90;99.90;;;;;;5004198;28;20210;-87
2022/06/02 12:25:40;;;;;;;1.03;0.97;;;18.80;99.90;;;;;;5003254;28;20223;-87
2022/06/02 12:28:23;;;;;;;0.80;0.80;;;18.80;99.90;;;;;;5003653;28;20206;-90
2022/06/02 12:31:11;;;;;;;1.30;1.20;;;18.90;99.90;;;;;;5004026;28;20198;-88
2022/06/02 12:33:45;;;;;;;1.83;1.00;;;18.90;99.90;;;;;;5023317;28;20580;-88
2022/06/02 12:36:42;;;;;;;1.27;0.90;;;18.40;99.90;;;;;;5006504;28;20235;-88
2022/06/02 12:39:10;;;;;;;1.97;1.27;;;18.70;99.90;;;;;;5003536;28;20231;-89
2022/06/02 12:42:06;;;;;;;1.30;1.10;;;19.20;99.90;;;;;;5003416;28;20223;-88
2022/06/02 12:45:05;;;;;;;5.00;1.50;;;19.70;99.90;;;;;;5004208;28;20565;-85
2022/06/02 12:47:58;;;;;;;2.83;2.20;;;19.60;99.90;;;;;;5004157;28;20226;-87
2022/06/02 12:50:34;;;;;;;0.80;0.80;;;18.80;99.90;;;;;;5004274;28;20214;-86
2022/06/02 12:53:10;;;;;;;1.47;1.20;;;18.50;99.90;;;;;;5004369;28;20221;-87
2022/06/02 12:55:54;;;;;;;1.57;1.30;;;19.00;99.90;;;;;;5002872;28;20282;-87
2022/06/02 12:59:09;;;;;;;2.57;1.30;;;19.60;99.90;;;;;;5004032;28;20219;-87
2022/06/02 13:02:13;;;;;;;2.17;1.03;;;19.30;99.90;;;;;;5009113;28;20269;-87
2022/06/02 13:05:19;;;;;;;1.23;1.00;;;19.00;99.90;;;;;;5012536;28;20218;-86
2022/06/02 13:08:23;;;;;;;1.30;1.20;;;18.50;99.90;;;;;;5016578;28;20711;-86
2022/06/02 13:11:12;;;;;;;3.27;1.40;;;18.80;99.90;;;;;;5016631;28;20215;-87
2022/06/02 13:14:14;;;;;;;0.70;0.70;;;18.70;99.90;;;;;;5015752;28;20241;-88
2022/06/02 13:17:02;;;;;;;1.27;0.97;;;18.70;99.90;;;;;;5016459;28;20242;-86
2022/06/02 13:19:46;;;;;;;0.80;0.80;;;19.00;99.90;;;;;;5017005;28;20272;-87
2022/06/02 13:22:25;;;;;;;1.50;1.40;;;18.80;99.90;;;;;;5019948;28;20215;-89
2022/06/02 13:25:09;;;;;;;1.00;0.90;;;19.00;99.90;;;;;;5018264;28;20297;-89
2022/06/02 13:27:57;;;;;;;3.00;1.27;;;18.90;99.90;;;;;;5038044;28;20785;-88
2022/06/02 13:30:51;;;;;;;0.90;0.90;;;19.10;99.90;;;;;;5018414;28;20232;-87
2022/06/02 13:33:35;;;;;;;0.90;0.90;;;19.10;99.90;;;;;;5027226;28;20231;-88
2022/06/02 13:36:10;;;;;;;1.27;1.17;;;19.30;99.90;;;;;;5005727;28;20243;-87
2022/06/02 13:38:59;;;;;;;2.57;1.10;;;19.00;99.90;;;;;;5023163;28;20230;-89
2022/06/02 13:41:53;;;;;;;0.90;0.90;;;19.00;99.90;;;;;;5024002;28;20615;-87
2022/06/02 13:44:27;;;;;;;3.73;1.23;;;18.90;99.90;;;;;;5023172;28;20231;-90
2022/06/02 13:47:15;;;;;;;1.40;1.30;;;18.80;99.90;;;;;;5007937;28;20207;-90
2022/06/02 13:50:03;;;;;;;1.60;1.50;;;19.30;99.90;;;;;;5005882;28;20703;-88
2022/06/02 13:52:46;;;;;;;3.33;1.60;;;19.30;99.90;;;;;;5007232;28;20207;-87
2022/06/02 13:58:18;;;;;;;2.13;1.00;;;18.80;99.90;;;;;;5007313;28;20212;-87
2022/06/02 14:01:02;;;;;;;1.97;1.50;;;19.40;99.90;;;;;;5006865;28;20194;-89
2022/06/02 14:03:52;;;;;;;1.97;1.23;;;19.90;99.90;;;;;;5005194;28;20695;-89
2022/06/02 14:06:20;;;;;;;2.90;1.53;;;19.50;99.90;;;;;;5005466;28;20480;-87
2022/06/02 14:08:57;;;;;;;2.87;1.40;;;19.20;99.90;;;;;;5007928;28;20473;-89
2022/06/02 14:11:44;;;;;;;1.83;1.00;;;19.20;99.90;;;;;;5006271;28;20218;-89
2022/06/02 14:14:28;;;;;;;3.97;1.63;;;19.10;99.90;;;;;;5006160;28;20266;-88
2022/06/02 14:17:45;;;;;;;1.60;1.10;;;18.80;99.90;;;;;;5007496;28;20223;-88
2022/06/02 14:20:51;;;;;;;1.23;1.13;;;19.10;99.90;;;;;;5004491;28;20223;-89
2022/06/02 14:23:52;;;;;;;2.43;0.97;;;19.30;99.90;;;;;;5005679;28;20718;-89
2022/06/02 14:26:35;;;;;;;2.27;1.30;;;19.40;99.90;;;;;;5006011;28;20249;-90
2022/06/02 14:29:37;;;;;;;3.90;1.37;;;19.40;99.90;;;;;;5022244;28;20219;-90
2022/06/02 14:32:21;;;;;;;1.13;1.07;;;19.50;99.90;;;;;;5005495;28;20227;-88